sensor_id;sensor_type;location;lat;lon;timestamp;P1;durP1;ratioP1;P2;durP2;ratioP2
80621;SDS011;69980;51.914;7.526;2023-06-10T00:01:12;6.18;;;5.07;;
80621;SDS011;69980;51.914;7.526;2023-06-10T00:03:37;7.60;;;4.97;;
80621;SDS011;69980;51.914;7.526;2023-06-10T00:06:04;8.68;;;5.10;;
80621;SDS011;69980;51.914;7.526;2023-06-10T00:08:29;7.63;;;5.15;;
80621;SDS011;69980;51.914;7.526;2023-06-10T00:10:54;7.10;;;4.78;;
80621;SDS011;69980;51.914;7.526;2023-06-10T00:13:20;7.25;;;5.45;;
80621;SDS011;69980;51.914;7.526;2023-06-10T00:15:45;7.80;;;5.20;;
80621;SDS011;69980;51.914;7.526;2023-06-10T00:18:10;5.78;;;4.80;;
80621;SDS011;69980;51.914;7.526;2023-06-10T00:20:36;6.18;;;5.03;;
80621;SDS011;69980;51.914;7.526;2023-06-10T00:23:01;6.30;;;5.03;;
80621;SDS011;69980;51.914;7.526;2023-06-10T00:25:26;7.88;;;5.18;;
80621;SDS011;69980;51.914;7.526;2023-06-10T00:27:52;8.27;;;5.00;;
80621;SDS011;69980;51.914;7.526;2023-06-10T00:30:17;6.65;;;4.97;;
80621;SDS011;69980;51.914;7.526;2023-06-10T00:32:42;6.97;;;4.40;;
80621;SDS011;69980;51.914;7.526;2023-06-10T00:35:08;7.20;;;4.72;;
80621;SDS011;69980;51.914;7.526;2023-06-10T00:37:33;9.32;;;5.07;;
80621;SDS011;69980;51.914;7.526;2023-06-10T00:39:58;6.65;;;4.88;;
80621;SDS011;69980;51.914;7.526;2023-06-10T00:42:24;6.75;;;4.93;;
80621;SDS011;69980;51.914;7.526;2023-06-10T00:44:52;9.18;;;5.10;;
80621;SDS011;69980;51.914;7.526;2023-06-10T00:47:19;7.88;;;5.00;;
80621;SDS011;69980;51.914;7.526;2023-06-10T00:49:44;8.18;;;4.78;;
80621;SDS011;69980;51.914;7.526;2023-06-10T00:52:10;5.40;;;4.35;;
80621;SDS011;69980;51.914;7.526;2023-06-10T00:54:36;6.50;;;4.65;;
80621;SDS011;69980;51.914;7.526;2023-06-10T00:57:02;6.80;;;4.55;;
80621;SDS011;69980;51.914;7.526;2023-06-10T00:59:31;6.45;;;4.63;;
80621;SDS011;69980;51.914;7.526;2023-06-10T01:01:56;7.22;;;4.35;;
80621;SDS011;69980;51.914;7.526;2023-06-10T01:04:22;6.60;;;4.50;;
80621;SDS011;69980;51.914;7.526;2023-06-10T01:06:50;6.25;;;5.07;;
80621;SDS011;69980;51.914;7.526;2023-06-10T01:12:26;5.93;;;4.60;;
80621;SDS011;69980;51.914;7.526;2023-06-10T01:14:56;6.70;;;4.68;;
80621;SDS011;69980;51.914;7.526;2023-06-10T01:17:21;9.73;;;4.90;;
80621;SDS011;69980;51.914;7.526;2023-06-10T01:19:53;7.05;;;5.03;;
80621;SDS011;69980;51.914;7.526;2023-06-10T01:24:48;7.28;;;4.90;;
80621;SDS011;69980;51.914;7.526;2023-06-10T01:27:13;8.10;;;5.30;;
80621;SDS011;69980;51.914;7.526;2023-06-10T01:29:45;8.68;;;5.10;;
80621;SDS011;69980;51.914;7.526;2023-06-10T01:32:29;8.30;;;4.88;;
80621;SDS011;69980;51.914;7.526;2023-06-10T01:35:05;8.07;;;5.22;;
80621;SDS011;69980;51.914;7.526;2023-06-10T01:37:31;7.22;;;4.90;;
80621;SDS011;69980;51.914;7.526;2023-06-10T01:40:00;6.93;;;5.22;;
80621;SDS011;69980;51.914;7.526;2023-06-10T01:42:25;6.70;;;4.90;;
80621;SDS011;69980;51.914;7.526;2023-06-10T01:44:51;5.70;;;4.78;;
80621;SDS011;69980;51.914;7.526;2023-06-10T01:47:16;8.65;;;5.20;;
80621;SDS011;69980;51.914;7.526;2023-06-10T01:49:42;7.82;;;5.00;;
80621;SDS011;69980;51.914;7.526;2023-06-10T01:52:07;7.30;;;4.90;;
80621;SDS011;69980;51.914;7.526;2023-06-10T01:54:32;8.45;;;5.20;;
80621;SDS011;69980;51.914;7.526;2023-06-10T01:56:58;7.25;;;4.53;;
80621;SDS011;69980;51.914;7.526;2023-06-10T01:59:23;7.95;;;4.60;;
80621;SDS011;69980;51.914;7.526;2023-06-10T02:01:48;7.97;;;5.13;;
80621;SDS011;69980;51.914;7.526;2023-06-10T02:04:13;9.30;;;5.20;;
80621;SDS011;69980;51.914;7.526;2023-06-10T02:06:39;7.53;;;4.40;;
80621;SDS011;69980;51.914;7.526;2023-06-10T02:09:04;7.55;;;5.10;;
80621;SDS011;69980;51.914;7.526;2023-06-10T02:11:29;6.95;;;4.85;;
80621;SDS011;69980;51.914;7.526;2023-06-10T02:13:55;5.75;;;4.18;;
80621;SDS011;69980;51.914;7.526;2023-06-10T02:16:20;6.55;;;4.97;;
80621;SDS011;69980;51.914;7.526;2023-06-10T02:18:45;7.07;;;5.07;;
80621;SDS011;69980;51.914;7.526;2023-06-10T02:21:11;6.88;;;5.20;;
80621;SDS011;69980;51.914;7.526;2023-06-10T02:23:36;7.32;;;4.93;;
80621;SDS011;69980;51.914;7.526;2023-06-10T02:26:01;9.05;;;5.07;;
80621;SDS011;69980;51.914;7.526;2023-06-10T02:28:27;6.55;;;4.50;;
80621;SDS011;69980;51.914;7.526;2023-06-10T02:30:52;7.63;;;5.45;;
80621;SDS011;69980;51.914;7.526;2023-06-10T02:33:17;6.32;;;4.50;;
80621;SDS011;69980;51.914;7.526;2023-06-10T02:35:42;8.13;;;4.78;;
80621;SDS011;69980;51.914;7.526;2023-06-10T02:38:08;10.57;;;5.60;;
80621;SDS011;69980;51.914;7.526;2023-06-10T02:40:33;7.80;;;5.32;;
80621;SDS011;69980;51.914;7.526;2023-06-10T02:42:58;8.00;;;5.47;;
80621;SDS011;69980;51.914;7.526;2023-06-10T02:45:24;9.05;;;5.03;;
80621;SDS011;69980;51.914;7.526;2023-06-10T02:47:49;7.85;;;5.13;;
80621;SDS011;69980;51.914;7.526;2023-06-10T02:50:15;5.95;;;4.97;;
80621;SDS011;69980;51.914;7.526;2023-06-10T02:52:40;8.73;;;5.43;;
80621;SDS011;69980;51.914;7.526;2023-06-10T02:55:06;10.60;;;6.07;;
80621;SDS011;69980;51.914;7.526;2023-06-10T02:57:31;9.27;;;5.40;;
80621;SDS011;69980;51.914;7.526;2023-06-10T02:59:56;7.63;;;5.18;;
80621;SDS011;69980;51.914;7.526;2023-06-10T03:02:22;8.27;;;4.90;;
80621;SDS011;69980;51.914;7.526;2023-06-10T03:04:47;8.07;;;5.93;;
80621;SDS011;69980;51.914;7.526;2023-06-10T03:07:12;7.90;;;5.13;;
80621;SDS011;69980;51.914;7.526;2023-06-10T03:09:38;6.95;;;4.72;;
80621;SDS011;69980;51.914;7.526;2023-06-10T03:12:03;6.47;;;4.63;;
80621;SDS011;69980;51.914;7.526;2023-06-10T03:14:28;7.25;;;4.65;;
80621;SDS011;69980;51.914;7.526;2023-06-10T03:16:54;7.32;;;4.70;;
80621;SDS011;69980;51.914;7.526;2023-06-10T03:19:19;8.73;;;5.32;;
80621;SDS011;69980;51.914;7.526;2023-06-10T03:21:44;7.85;;;4.70;;
80621;SDS011;69980;51.914;7.526;2023-06-10T03:24:10;7.28;;;5.35;;
80621;SDS011;69980;51.914;7.526;2023-06-10T03:26:35;8.25;;;5.00;;
80621;SDS011;69980;51.914;7.526;2023-06-10T03:29:00;7.38;;;5.03;;
80621;SDS011;69980;51.914;7.526;2023-06-10T03:31:26;8.60;;;5.45;;
80621;SDS011;69980;51.914;7.526;2023-06-10T03:33:51;9.02;;;5.35;;
80621;SDS011;69980;51.914;7.526;2023-06-10T03:36:16;9.40;;;5.60;;
80621;SDS011;69980;51.914;7.526;2023-06-10T03:38:41;11.93;;;6.15;;
80621;SDS011;69980;51.914;7.526;2023-06-10T03:41:07;6.63;;;5.22;;
80621;SDS011;69980;51.914;7.526;2023-06-10T03:43:32;8.50;;;5.35;;
80621;SDS011;69980;51.914;7.526;2023-06-10T03:45:57;7.72;;;5.43;;
80621;SDS011;69980;51.914;7.526;2023-06-10T03:48:23;6.80;;;4.82;;
80621;SDS011;69980;51.914;7.526;2023-06-10T03:50:48;8.18;;;5.60;;
80621;SDS011;69980;51.914;7.526;2023-06-10T03:53:13;8.60;;;4.82;;
80621;SDS011;69980;51.914;7.526;2023-06-10T03:55:38;6.00;;;4.28;;
80621;SDS011;69980;51.914;7.526;2023-06-10T03:58:04;8.18;;;5.68;;
80621;SDS011;69980;51.914;7.526;2023-06-10T04:00:29;9.40;;;5.50;;
80621;SDS011;69980;51.914;7.526;2023-06-10T04:02:54;6.82;;;5.13;;
80621;SDS011;69980;51.914;7.526;2023-06-10T04:05:20;9.55;;;5.35;;
80621;SDS011;69980;51.914;7.526;2023-06-10T04:07:45;7.07;;;5.68;;
80621;SDS011;69980;51.914;7.526;2023-06-10T04:10:10;7.25;;;5.10;;
80621;SDS011;69980;51.914;7.526;2023-06-10T04:12:36;11.75;;;5.93;;
80621;SDS011;69980;51.914;7.526;2023-06-10T04:15:03;9.60;;;6.40;;
80621;SDS011;69980;51.914;7.526;2023-06-10T04:17:28;10.00;;;5.35;;
80621;SDS011;69980;51.914;7.526;2023-06-10T04:19:54;10.25;;;5.78;;
80621;SDS011;69980;51.914;7.526;2023-06-10T04:22:19;7.03;;;5.28;;
80621;SDS011;69980;51.914;7.526;2023-06-10T04:24:44;9.05;;;4.88;;
80621;SDS011;69980;51.914;7.526;2023-06-10T04:27:10;7.85;;;5.07;;
80621;SDS011;69980;51.914;7.526;2023-06-10T04:29:35;7.72;;;4.53;;
80621;SDS011;69980;51.914;7.526;2023-06-10T04:32:00;6.68;;;4.72;;
80621;SDS011;69980;51.914;7.526;2023-06-10T04:34:25;7.55;;;4.85;;
80621;SDS011;69980;51.914;7.526;2023-06-10T04:36:51;9.07;;;4.60;;
80621;SDS011;69980;51.914;7.526;2023-06-10T04:39:16;10.07;;;5.60;;
80621;SDS011;69980;51.914;7.526;2023-06-10T04:41:41;7.72;;;5.60;;
80621;SDS011;69980;51.914;7.526;2023-06-10T04:44:07;7.35;;;4.55;;
80621;SDS011;69980;51.914;7.526;2023-06-10T04:46:32;8.63;;;5.47;;
80621;SDS011;69980;51.914;7.526;2023-06-10T04:48:57;11.05;;;5.90;;
80621;SDS011;69980;51.914;7.526;2023-06-10T04:51:23;8.32;;;5.50;;
80621;SDS011;69980;51.914;7.526;2023-06-10T04:53:48;9.00;;;5.05;;
80621;SDS011;69980;51.914;7.526;2023-06-10T04:56:13;10.02;;;5.63;;
80621;SDS011;69980;51.914;7.526;2023-06-10T04:58:38;7.55;;;5.20;;
80621;SDS011;69980;51.914;7.526;2023-06-10T05:01:04;5.68;;;4.53;;
80621;SDS011;69980;51.914;7.526;2023-06-10T05:03:29;6.72;;;4.47;;
80621;SDS011;69980;51.914;7.526;2023-06-10T05:05:54;7.25;;;4.95;;
80621;SDS011;69980;51.914;7.526;2023-06-10T05:08:20;6.93;;;4.45;;
80621;SDS011;69980;51.914;7.526;2023-06-10T05:10:45;7.68;;;4.90;;
80621;SDS011;69980;51.914;7.526;2023-06-10T05:13:10;7.68;;;4.32;;
80621;SDS011;69980;51.914;7.526;2023-06-10T05:15:35;9.10;;;4.55;;
80621;SDS011;69980;51.914;7.526;2023-06-10T05:18:01;5.75;;;4.18;;
80621;SDS011;69980;51.914;7.526;2023-06-10T05:20:26;6.43;;;4.93;;
80621;SDS011;69980;51.914;7.526;2023-06-10T05:22:51;6.25;;;4.38;;
80621;SDS011;69980;51.914;7.526;2023-06-10T05:25:17;7.45;;;4.80;;
80621;SDS011;69980;51.914;7.526;2023-06-10T05:27:42;6.07;;;4.35;;
80621;SDS011;69980;51.914;7.526;2023-06-10T05:30:07;6.88;;;4.20;;
80621;SDS011;69980;51.914;7.526;2023-06-10T05:32:33;6.35;;;4.00;;
80621;SDS011;69980;51.914;7.526;2023-06-10T05:34:59;7.72;;;4.40;;
80621;SDS011;69980;51.914;7.526;2023-06-10T05:37:24;7.05;;;4.07;;
80621;SDS011;69980;51.914;7.526;2023-06-10T05:39:49;6.10;;;4.00;;
80621;SDS011;69980;51.914;7.526;2023-06-10T05:42:14;6.82;;;4.25;;
80621;SDS011;69980;51.914;7.526;2023-06-10T05:44:40;6.60;;;4.03;;
80621;SDS011;69980;51.914;7.526;2023-06-10T05:47:05;7.82;;;4.22;;
80621;SDS011;69980;51.914;7.526;2023-06-10T05:49:30;6.47;;;3.70;;
80621;SDS011;69980;51.914;7.526;2023-06-10T05:51:56;6.60;;;3.78;;
80621;SDS011;69980;51.914;7.526;2023-06-10T05:54:21;5.50;;;3.50;;
80621;SDS011;69980;51.914;7.526;2023-06-10T05:56:46;7.05;;;3.63;;
80621;SDS011;69980;51.914;7.526;2023-06-10T05:59:12;4.82;;;3.20;;
80621;SDS011;69980;51.914;7.526;2023-06-10T06:01:37;6.10;;;3.60;;
80621;SDS011;69980;51.914;7.526;2023-06-10T06:04:02;6.88;;;3.55;;
80621;SDS011;69980;51.914;7.526;2023-06-10T06:06:28;6.18;;;3.35;;
80621;SDS011;69980;51.914;7.526;2023-06-10T06:08:53;7.30;;;3.88;;
80621;SDS011;69980;51.914;7.526;2023-06-10T06:11:18;5.38;;;3.58;;
80621;SDS011;69980;51.914;7.526;2023-06-10T06:13:43;5.60;;;3.88;;
80621;SDS011;69980;51.914;7.526;2023-06-10T06:16:09;5.53;;;3.55;;
80621;SDS011;69980;51.914;7.526;2023-06-10T06:18:34;5.57;;;3.58;;
80621;SDS011;69980;51.914;7.526;2023-06-10T06:20:59;5.82;;;3.20;;
80621;SDS011;69980;51.914;7.526;2023-06-10T06:23:25;5.70;;;3.05;;
80621;SDS011;69980;51.914;7.526;2023-06-10T06:25:50;6.55;;;3.80;;
80621;SDS011;69980;51.914;7.526;2023-06-10T06:28:15;5.30;;;3.10;;
80621;SDS011;69980;51.914;7.526;2023-06-10T06:30:40;7.20;;;3.30;;
80621;SDS011;69980;51.914;7.526;2023-06-10T06:33:06;6.55;;;3.35;;
80621;SDS011;69980;51.914;7.526;2023-06-10T06:35:32;7.53;;;3.50;;
80621;SDS011;69980;51.914;7.526;2023-06-10T06:37:58;8.02;;;3.33;;
80621;SDS011;69980;51.914;7.526;2023-06-10T06:40:23;4.32;;;2.90;;
80621;SDS011;69980;51.914;7.526;2023-06-10T06:42:48;5.07;;;3.05;;
80621;SDS011;69980;51.914;7.526;2023-06-10T06:45:14;5.85;;;2.95;;
80621;SDS011;69980;51.914;7.526;2023-06-10T06:47:39;5.88;;;3.40;;
80621;SDS011;69980;51.914;7.526;2023-06-10T06:50:04;8.60;;;3.42;;
80621;SDS011;69980;51.914;7.526;2023-06-10T06:52:30;6.85;;;3.20;;
80621;SDS011;69980;51.914;7.526;2023-06-10T06:54:55;5.00;;;3.20;;
80621;SDS011;69980;51.914;7.526;2023-06-10T06:57:20;7.68;;;3.00;;
80621;SDS011;69980;51.914;7.526;2023-06-10T06:59:46;5.20;;;3.22;;
80621;SDS011;69980;51.914;7.526;2023-06-10T07:02:11;6.15;;;2.95;;
80621;SDS011;69980;51.914;7.526;2023-06-10T07:04:36;5.90;;;2.97;;
80621;SDS011;69980;51.914;7.526;2023-06-10T07:07:02;5.75;;;3.22;;
80621;SDS011;69980;51.914;7.526;2023-06-10T07:09:27;5.30;;;2.78;;
80621;SDS011;69980;51.914;7.526;2023-06-10T07:11:52;6.28;;;2.85;;
80621;SDS011;69980;51.914;7.526;2023-06-10T07:14:18;7.53;;;2.97;;
80621;SDS011;69980;51.914;7.526;2023-06-10T07:16:43;5.55;;;2.85;;
80621;SDS011;69980;51.914;7.526;2023-06-10T07:19:08;5.32;;;2.85;;
80621;SDS011;69980;51.914;7.526;2023-06-10T07:21:33;5.15;;;2.78;;
80621;SDS011;69980;51.914;7.526;2023-06-10T07:23:59;5.60;;;2.85;;
80621;SDS011;69980;51.914;7.526;2023-06-10T07:26:24;4.45;;;2.50;;
80621;SDS011;69980;51.914;7.526;2023-06-10T07:28:50;5.07;;;2.72;;
80621;SDS011;69980;51.914;7.526;2023-06-10T07:31:15;4.32;;;2.80;;
80621;SDS011;69980;51.914;7.526;2023-06-10T07:33:40;3.90;;;2.58;;
80621;SDS011;69980;51.914;7.526;2023-06-10T07:36:06;4.28;;;2.40;;
80621;SDS011;69980;51.914;7.526;2023-06-10T07:38:32;4.72;;;2.75;;
80621;SDS011;69980;51.914;7.526;2023-06-10T07:40:57;5.60;;;2.50;;
80621;SDS011;69980;51.914;7.526;2023-06-10T07:43:23;7.57;;;2.97;;
80621;SDS011;69980;51.914;7.526;2023-06-10T07:45:49;4.40;;;2.60;;
80621;SDS011;69980;51.914;7.526;2023-06-10T07:48:14;5.20;;;2.72;;
80621;SDS011;69980;51.914;7.526;2023-06-10T07:50:39;5.90;;;2.83;;
80621;SDS011;69980;51.914;7.526;2023-06-10T07:53:05;3.92;;;2.45;;
80621;SDS011;69980;51.914;7.526;2023-06-10T07:55:30;4.90;;;2.72;;
80621;SDS011;69980;51.914;7.526;2023-06-10T07:57:55;5.78;;;2.47;;
80621;SDS011;69980;51.914;7.526;2023-06-10T08:00:21;4.38;;;2.50;;
80621;SDS011;69980;51.914;7.526;2023-06-10T08:02:46;6.45;;;2.63;;
80621;SDS011;69980;51.914;7.526;2023-06-10T08:05:12;5.75;;;2.85;;
80621;SDS011;69980;51.914;7.526;2023-06-10T08:07:37;4.00;;;2.42;;
80621;SDS011;69980;51.914;7.526;2023-06-10T08:10:04;5.03;;;2.70;;
80621;SDS011;69980;51.914;7.526;2023-06-10T08:12:30;4.50;;;2.60;;
80621;SDS011;69980;51.914;7.526;2023-06-10T08:14:56;8.57;;;3.30;;
80621;SDS011;69980;51.914;7.526;2023-06-10T08:17:21;5.07;;;2.67;;
80621;SDS011;69980;51.914;7.526;2023-06-10T08:19:47;4.22;;;2.60;;
80621;SDS011;69980;51.914;7.526;2023-06-10T08:22:12;5.65;;;2.63;;
80621;SDS011;69980;51.914;7.526;2023-06-10T08:24:37;4.93;;;2.40;;
80621;SDS011;69980;51.914;7.526;2023-06-10T08:27:03;5.45;;;2.58;;
80621;SDS011;69980;51.914;7.526;2023-06-10T08:29:28;5.32;;;2.60;;
80621;SDS011;69980;51.914;7.526;2023-06-10T08:31:54;4.57;;;2.63;;
80621;SDS011;69980;51.914;7.526;2023-06-10T08:34:19;5.57;;;2.75;;
80621;SDS011;69980;51.914;7.526;2023-06-10T08:36:44;4.05;;;2.58;;
80621;SDS011;69980;51.914;7.526;2023-06-10T08:39:09;3.80;;;2.40;;
80621;SDS011;69980;51.914;7.526;2023-06-10T08:41:35;4.68;;;2.90;;
80621;SDS011;69980;51.914;7.526;2023-06-10T08:46:35;4.13;;;2.70;;
80621;SDS011;69980;51.914;7.526;2023-06-10T08:49:06;5.38;;;2.60;;
80621;SDS011;69980;51.914;7.526;2023-06-10T08:51:32;5.18;;;2.72;;
80621;SDS011;69980;51.914;7.526;2023-06-10T08:54:01;4.53;;;2.63;;
80621;SDS011;69980;51.914;7.526;2023-06-10T08:56:29;7.60;;;2.90;;
80621;SDS011;69980;51.914;7.526;2023-06-10T08:58:55;5.75;;;3.00;;
80621;SDS011;69980;51.914;7.526;2023-06-10T09:01:21;4.15;;;2.42;;
80621;SDS011;69980;51.914;7.526;2023-06-10T09:03:46;14.77;;;3.13;;
80621;SDS011;69980;51.914;7.526;2023-06-10T09:06:12;3.92;;;2.70;;
80621;SDS011;69980;51.914;7.526;2023-06-10T09:08:38;4.80;;;2.70;;
80621;SDS011;69980;51.914;7.526;2023-06-10T09:11:03;4.43;;;2.60;;
80621;SDS011;69980;51.914;7.526;2023-06-10T09:13:29;4.70;;;2.63;;
80621;SDS011;69980;51.914;7.526;2023-06-10T09:15:54;5.32;;;2.78;;
80621;SDS011;69980;51.914;7.526;2023-06-10T09:18:20;5.15;;;2.75;;
80621;SDS011;69980;51.914;7.526;2023-06-10T09:20:45;4.07;;;2.35;;
80621;SDS011;69980;51.914;7.526;2023-06-10T09:23:10;5.72;;;2.40;;
80621;SDS011;69980;51.914;7.526;2023-06-10T09:25:36;6.22;;;2.58;;
80621;SDS011;69980;51.914;7.526;2023-06-10T09:28:02;5.68;;;2.65;;
80621;SDS011;69980;51.914;7.526;2023-06-10T09:30:31;4.18;;;2.55;;
80621;SDS011;69980;51.914;7.526;2023-06-10T09:33:00;5.72;;;2.75;;
80621;SDS011;69980;51.914;7.526;2023-06-10T09:35:27;6.53;;;2.95;;
80621;SDS011;69980;51.914;7.526;2023-06-10T09:37:53;5.03;;;2.47;;
80621;SDS011;69980;51.914;7.526;2023-06-10T09:40:19;4.22;;;2.60;;
80621;SDS011;69980;51.914;7.526;2023-06-10T09:42:45;4.63;;;2.90;;
80621;SDS011;69980;51.914;7.526;2023-06-10T09:45:10;6.13;;;2.63;;
80621;SDS011;69980;51.914;7.526;2023-06-10T09:47:35;3.97;;;2.70;;
80621;SDS011;69980;51.914;7.526;2023-06-10T09:50:01;5.47;;;2.75;;
80621;SDS011;69980;51.914;7.526;2023-06-10T09:52:27;4.88;;;2.47;;
80621;SDS011;69980;51.914;7.526;2023-06-10T09:54:53;4.13;;;2.70;;
80621;SDS011;69980;51.914;7.526;2023-06-10T09:57:23;5.53;;;3.00;;
80621;SDS011;69980;51.914;7.526;2023-06-10T09:59:52;4.88;;;3.03;;
80621;SDS011;69980;51.914;7.526;2023-06-10T10:02:18;4.55;;;3.13;;
80621;SDS011;69980;51.914;7.526;2023-06-10T10:04:43;3.85;;;2.65;;
80621;SDS011;69980;51.914;7.526;2023-06-10T10:07:09;4.47;;;2.88;;
80621;SDS011;69980;51.914;7.526;2023-06-10T10:09:36;3.70;;;2.67;;
80621;SDS011;69980;51.914;7.526;2023-06-10T10:12:02;8.10;;;3.15;;
80621;SDS011;69980;51.914;7.526;2023-06-10T10:14:30;6.05;;;2.85;;
80621;SDS011;69980;51.914;7.526;2023-06-10T10:16:57;4.05;;;2.90;;
80621;SDS011;69980;51.914;7.526;2023-06-10T10:19:23;5.40;;;3.30;;
80621;SDS011;69980;51.914;7.526;2023-06-10T10:21:54;5.47;;;2.95;;
80621;SDS011;69980;51.914;7.526;2023-06-10T10:24:23;5.00;;;2.83;;
80621;SDS011;69980;51.914;7.526;2023-06-10T10:26:51;6.57;;;3.00;;
80621;SDS011;69980;51.914;7.526;2023-06-10T10:29:29;4.57;;;2.78;;
80621;SDS011;69980;51.914;7.526;2023-06-10T10:31:56;5.72;;;3.03;;
80621;SDS011;69980;51.914;7.526;2023-06-10T10:37:14;4.28;;;2.80;;
80621;SDS011;69980;51.914;7.526;2023-06-10T10:39:40;4.88;;;2.60;;
80621;SDS011;69980;51.914;7.526;2023-06-10T10:42:06;5.40;;;3.00;;
80621;SDS011;69980;51.914;7.526;2023-06-10T10:44:32;4.50;;;2.92;;
80621;SDS011;69980;51.914;7.526;2023-06-10T10:46:57;4.15;;;2.60;;
80621;SDS011;69980;51.914;7.526;2023-06-10T10:49:27;4.75;;;2.88;;
80621;SDS011;69980;51.914;7.526;2023-06-10T10:51:56;3.50;;;2.53;;
80621;SDS011;69980;51.914;7.526;2023-06-10T10:54:27;4.05;;;2.90;;
80621;SDS011;69980;51.914;7.526;2023-06-10T11:04:48;3.85;;;2.80;;
80621;SDS011;69980;51.914;7.526;2023-06-10T11:07:13;4.78;;;2.80;;
80621;SDS011;69980;51.914;7.526;2023-06-10T11:09:39;5.57;;;3.20;;
80621;SDS011;69980;51.914;7.526;2023-06-10T11:15:06;6.18;;;3.10;;
80621;SDS011;69980;51.914;7.526;2023-06-10T11:17:32;4.00;;;2.83;;
80621;SDS011;69980;51.914;7.526;2023-06-10T11:19:58;5.55;;;2.83;;
80621;SDS011;69980;51.914;7.526;2023-06-10T11:22:23;5.03;;;3.17;;
80621;SDS011;69980;51.914;7.526;2023-06-10T11:24:52;4.85;;;2.88;;
80621;SDS011;69980;51.914;7.526;2023-06-10T11:27:18;5.10;;;3.10;;
80621;SDS011;69980;51.914;7.526;2023-06-10T11:29:54;4.18;;;2.70;;
80621;SDS011;69980;51.914;7.526;2023-06-10T11:32:25;4.68;;;2.88;;
80621;SDS011;69980;51.914;7.526;2023-06-10T11:34:54;5.38;;;3.20;;
80621;SDS011;69980;51.914;7.526;2023-06-10T11:37:20;5.00;;;2.75;;
80621;SDS011;69980;51.914;7.526;2023-06-10T11:39:46;3.88;;;2.90;;
80621;SDS011;69980;51.914;7.526;2023-06-10T11:42:11;3.85;;;2.65;;
80621;SDS011;69980;51.914;7.526;2023-06-10T11:44:37;4.25;;;2.88;;
80621;SDS011;69980;51.914;7.526;2023-06-10T11:47:03;7.57;;;2.80;;
80621;SDS011;69980;51.914;7.526;2023-06-10T11:49:29;5.35;;;3.10;;
80621;SDS011;69980;51.914;7.526;2023-06-10T11:51:54;7.38;;;3.03;;
80621;SDS011;69980;51.914;7.526;2023-06-10T11:54:20;6.38;;;2.90;;
80621;SDS011;69980;51.914;7.526;2023-06-10T11:56:45;4.90;;;3.10;;
80621;SDS011;69980;51.914;7.526;2023-06-10T11:59:11;5.22;;;2.92;;
80621;SDS011;69980;51.914;7.526;2023-06-10T12:01:37;4.70;;;3.08;;
80621;SDS011;69980;51.914;7.526;2023-06-10T12:04:08;4.32;;;2.95;;
80621;SDS011;69980;51.914;7.526;2023-06-10T12:06:38;4.72;;;2.75;;
80621;SDS011;69980;51.914;7.526;2023-06-10T12:09:03;4.97;;;3.20;;
80621;SDS011;69980;51.914;7.526;2023-06-10T12:11:29;8.65;;;2.90;;
80621;SDS011;69980;51.914;7.526;2023-06-10T12:13:54;3.72;;;2.80;;
80621;SDS011;69980;51.914;7.526;2023-06-10T12:16:19;4.82;;;3.05;;
80621;SDS011;69980;51.914;7.526;2023-06-10T12:18:46;4.60;;;2.88;;
80621;SDS011;69980;51.914;7.526;2023-06-10T12:21:23;5.05;;;2.92;;
80621;SDS011;69980;51.914;7.526;2023-06-10T12:26:37;5.95;;;3.10;;
80621;SDS011;69980;51.914;7.526;2023-06-10T12:29:27;4.15;;;2.50;;
80621;SDS011;69980;51.914;7.526;2023-06-10T12:31:59;6.22;;;3.22;;
80621;SDS011;69980;51.914;7.526;2023-06-10T12:34:31;4.97;;;2.55;;
80621;SDS011;69980;51.914;7.526;2023-06-10T12:37:03;4.10;;;3.00;;
80621;SDS011;69980;51.914;7.526;2023-06-10T12:39:30;4.47;;;3.10;;
80621;SDS011;69980;51.914;7.526;2023-06-10T12:41:56;5.80;;;3.53;;
80621;SDS011;69980;51.914;7.526;2023-06-10T12:44:31;4.88;;;3.20;;
80621;SDS011;69980;51.914;7.526;2023-06-10T12:46:57;3.83;;;3.20;;
80621;SDS011;69980;51.914;7.526;2023-06-10T12:49:22;4.00;;;2.80;;
80621;SDS011;69980;51.914;7.526;2023-06-10T12:51:48;7.32;;;2.83;;
80621;SDS011;69980;51.914;7.526;2023-06-10T12:54:14;5.43;;;3.03;;
80621;SDS011;69980;51.914;7.526;2023-06-10T12:56:39;6.10;;;3.08;;
80621;SDS011;69980;51.914;7.526;2023-06-10T12:59:04;5.25;;;3.38;;
80621;SDS011;69980;51.914;7.526;2023-06-10T13:01:30;5.45;;;3.10;;
80621;SDS011;69980;51.914;7.526;2023-06-10T13:03:55;5.78;;;3.20;;
80621;SDS011;69980;51.914;7.526;2023-06-10T13:06:20;3.83;;;2.75;;
80621;SDS011;69980;51.914;7.526;2023-06-10T13:08:45;5.63;;;3.25;;
80621;SDS011;69980;51.914;7.526;2023-06-10T13:11:11;6.18;;;3.00;;
80621;SDS011;69980;51.914;7.526;2023-06-10T13:13:36;3.47;;;2.60;;
80621;SDS011;69980;51.914;7.526;2023-06-10T13:16:02;4.18;;;2.70;;
80621;SDS011;69980;51.914;7.526;2023-06-10T13:18:27;5.65;;;3.05;;
80621;SDS011;69980;51.914;7.526;2023-06-10T13:20:52;5.38;;;3.25;;
80621;SDS011;69980;51.914;7.526;2023-06-10T13:23:18;4.75;;;2.80;;
80621;SDS011;69980;51.914;7.526;2023-06-10T13:25:43;4.35;;;3.00;;
80621;SDS011;69980;51.914;7.526;2023-06-10T13:28:08;6.75;;;3.40;;
80621;SDS011;69980;51.914;7.526;2023-06-10T13:30:34;4.70;;;2.95;;
80621;SDS011;69980;51.914;7.526;2023-06-10T13:32:59;3.90;;;2.95;;
80621;SDS011;69980;51.914;7.526;2023-06-10T13:35:24;7.00;;;2.95;;
80621;SDS011;69980;51.914;7.526;2023-06-10T13:37:50;4.13;;;2.92;;
80621;SDS011;69980;51.914;7.526;2023-06-10T13:40:15;6.00;;;3.00;;
80621;SDS011;69980;51.914;7.526;2023-06-10T13:42:40;5.13;;;3.05;;
80621;SDS011;69980;51.914;7.526;2023-06-10T13:45:06;5.75;;;2.83;;
80621;SDS011;69980;51.914;7.526;2023-06-10T13:47:31;5.38;;;3.17;;
80621;SDS011;69980;51.914;7.526;2023-06-10T13:49:57;6.60;;;3.28;;
80621;SDS011;69980;51.914;7.526;2023-06-10T13:52:22;6.35;;;3.42;;
80621;SDS011;69980;51.914;7.526;2023-06-10T13:54:47;6.32;;;3.60;;
80621;SDS011;69980;51.914;7.526;2023-06-10T13:57:12;5.43;;;3.40;;
80621;SDS011;69980;51.914;7.526;2023-06-10T13:59:38;4.00;;;3.20;;
80621;SDS011;69980;51.914;7.526;2023-06-10T14:02:03;4.43;;;3.08;;
80621;SDS011;69980;51.914;7.526;2023-06-10T14:04:29;4.75;;;3.00;;
80621;SDS011;69980;51.914;7.526;2023-06-10T14:06:54;5.85;;;3.10;;
80621;SDS011;69980;51.914;7.526;2023-06-10T14:09:19;4.93;;;2.92;;
80621;SDS011;69980;51.914;7.526;2023-06-10T14:11:44;4.28;;;3.10;;
80621;SDS011;69980;51.914;7.526;2023-06-10T14:14:10;4.97;;;3.07;;
80621;SDS011;69980;51.914;7.526;2023-06-10T14:16:35;5.07;;;3.25;;
80621;SDS011;69980;51.914;7.526;2023-06-10T14:19:00;5.75;;;3.30;;
80621;SDS011;69980;51.914;7.526;2023-06-10T14:21:26;6.82;;;3.33;;
80621;SDS011;69980;51.914;7.526;2023-06-10T14:23:52;3.78;;;2.97;;
80621;SDS011;69980;51.914;7.526;2023-06-10T14:26:17;5.75;;;3.47;;
80621;SDS011;69980;51.914;7.526;2023-06-10T14:28:42;6.72;;;3.67;;
80621;SDS011;69980;51.914;7.526;2023-06-10T14:31:08;4.90;;;3.30;;
80621;SDS011;69980;51.914;7.526;2023-06-10T14:33:33;4.93;;;3.33;;
80621;SDS011;69980;51.914;7.526;2023-06-10T14:35:58;3.97;;;3.13;;
80621;SDS011;69980;51.914;7.526;2023-06-10T14:38:23;3.83;;;3.13;;
80621;SDS011;69980;51.914;7.526;2023-06-10T14:40:49;4.05;;;3.17;;
80621;SDS011;69980;51.914;7.526;2023-06-10T14:43:14;6.13;;;3.15;;
80621;SDS011;69980;51.914;7.526;2023-06-10T14:45:39;5.97;;;3.20;;
80621;SDS011;69980;51.914;7.526;2023-06-10T14:48:05;6.00;;;3.38;;
80621;SDS011;69980;51.914;7.526;2023-06-10T14:50:31;4.28;;;3.75;;
80621;SDS011;69980;51.914;7.526;2023-06-10T14:52:57;6.53;;;3.40;;
80621;SDS011;69980;51.914;7.526;2023-06-10T14:55:22;4.45;;;3.22;;
80621;SDS011;69980;51.914;7.526;2023-06-10T14:57:48;4.20;;;3.08;;
80621;SDS011;69980;51.914;7.526;2023-06-10T15:00:13;4.40;;;3.58;;
80621;SDS011;69980;51.914;7.526;2023-06-10T15:02:39;5.65;;;3.38;;
80621;SDS011;69980;51.914;7.526;2023-06-10T15:05:04;4.72;;;3.30;;